createdAt,value
2022-10-19T00:00:34.351Z,17.67
2022-10-19T00:03:23.227Z,18.87
2022-10-19T00:06:58.258Z,21.27
2022-10-19T00:09:26.768Z,20.27
2022-10-19T00:11:53.943Z,21.17
2022-10-19T00:14:23.161Z,20.10
2022-10-19T00:16:52.071Z,19.97
2022-10-19T00:19:22.671Z,14.63
2022-10-19T00:25:37.205Z,14.43
2022-10-19T00:28:37.446Z,14.93
2022-10-19T00:31:10.076Z,15.97
2022-10-19T00:33:37.572Z,18.77
2022-10-19T00:36:05.919Z,11.30
2022-10-19T00:38:33.017Z,13.97
2022-10-19T00:40:59.882Z,13.37
2022-10-19T00:44:20.306Z,12.30
2022-10-19T00:47:03.412Z,19.60
2022-10-19T00:49:36.017Z,16.43
2022-10-19T00:52:12.471Z,17.83
2022-10-19T00:54:42.571Z,19.63
2022-10-19T00:57:10.302Z,14.90
2022-10-19T00:59:39.550Z,14.60
2022-10-19T01:02:47.288Z,17.10
2022-10-19T01:05:25.309Z,18.07
2022-10-19T01:07:52.762Z,15.13
2022-10-19T01:10:24.536Z,14.53
2022-10-19T01:13:26.944Z,17.37
2022-10-19T01:16:07.821Z,20.37
2022-10-19T01:19:49.053Z,16.67
2022-10-19T01:23:00.423Z,19.80
2022-10-19T01:26:05.672Z,18.97
2022-10-19T01:29:04.131Z,25.77
2022-10-19T01:31:52.200Z,20.10
2022-10-19T01:34:26.160Z,20.93
2022-10-19T01:37:11.922Z,19.67
2022-10-19T01:39:49.895Z,18.03
2022-10-19T01:42:57.026Z,22.53
2022-10-19T01:45:41.862Z,22.80
2022-10-19T01:48:20.703Z,16.80
2022-10-19T01:50:54.246Z,18.47
2022-10-19T01:53:22.065Z,20.57
2022-10-19T01:59:20.721Z,20.33
2022-10-19T02:01:51.034Z,13.13
2022-10-19T02:04:20.916Z,16.70
2022-10-19T02:06:50.142Z,16.17
2022-10-19T02:09:20.361Z,18.50
2022-10-19T02:11:53.414Z,15.27
2022-10-19T02:14:43.433Z,16.37
2022-10-19T02:17:50.809Z,17.27
2022-10-19T02:20:18.547Z,18.87
2022-10-19T02:22:45.777Z,13.97
2022-10-19T02:25:13.324Z,20.33
2022-10-19T02:27:44.639Z,18.07
2022-10-19T02:30:15.446Z,21.97
2022-10-19T02:33:30.638Z,18.33
2022-10-19T02:35:59.842Z,26.13
2022-10-19T02:38:28.088Z,20.50
2022-10-19T02:41:11.677Z,18.77
2022-10-19T02:43:41.756Z,19.13
2022-10-19T02:46:18.130Z,19.37
2022-10-19T02:48:46.516Z,20.07
2022-10-19T02:51:39.443Z,20.70
2022-10-19T02:54:29.364Z,15.13
2022-10-19T02:56:57.293Z,25.47
2022-10-19T02:59:25.590Z,19.70
2022-10-19T03:01:53.129Z,20.07
2022-10-19T03:04:20.236Z,15.97
2022-10-19T03:06:47.680Z,24.67
2022-10-19T03:09:14.658Z,22.13
2022-10-19T03:12:00.491Z,19.13
2022-10-19T03:14:41.128Z,17.37
2022-10-19T03:17:08.682Z,19.07
2022-10-19T03:19:36.517Z,19.23
2022-10-19T03:22:04.141Z,18.43
2022-10-19T03:24:31.700Z,20.53
2022-10-19T03:26:58.772Z,24.73
2022-10-19T03:30:07.857Z,20.57
2022-10-19T03:32:35.445Z,23.70
2022-10-19T03:35:04.006Z,24.20
2022-10-19T03:37:31.287Z,18.63
2022-10-19T03:39:58.439Z,20.37
2022-10-19T03:42:25.594Z,18.57
2022-10-19T03:44:52.538Z,24.77
2022-10-19T03:47:28.683Z,23.83
2022-10-19T03:50:03.143Z,23.87
2022-10-19T03:52:30.555Z,22.27
2022-10-19T03:54:57.512Z,20.03
2022-10-19T03:57:24.651Z,20.13
2022-10-19T03:59:51.641Z,14.50
2022-10-19T04:02:18.702Z,18.90
2022-10-19T04:05:21.397Z,18.07
2022-10-19T04:08:15.401Z,20.87
2022-10-19T04:10:42.419Z,16.20
2022-10-19T04:13:09.598Z,16.40
2022-10-19T04:15:36.779Z,17.60
2022-10-19T04:18:04.053Z,16.40
2022-10-19T04:20:30.943Z,13.87
2022-10-19T04:22:58.181Z,15.33
2022-10-19T04:25:38.592Z,23.10
2022-10-19T04:28:05.852Z,15.80
2022-10-19T04:30:32.847Z,14.23
2022-10-19T04:32:59.937Z,20.10
2022-10-19T04:35:26.874Z,15.90
2022-10-19T04:37:54.009Z,14.87
2022-10-19T04:40:20.916Z,12.23
2022-10-19T04:43:04.603Z,13.23
2022-10-19T04:45:50.162Z,14.27
2022-10-19T04:48:17.351Z,22.23
2022-10-19T04:50:44.330Z,13.57
2022-10-19T04:53:11.529Z,15.77
2022-10-19T04:55:42.531Z,15.10
2022-10-19T04:58:09.732Z,17.23
2022-10-19T05:05:04.954Z,14.63
2022-10-19T05:07:32.316Z,12.77
2022-10-19T05:09:59.681Z,18.00
2022-10-19T05:12:26.576Z,15.27
2022-10-19T05:14:53.707Z,10.27
2022-10-19T05:17:20.650Z,11.93
2022-10-19T05:20:38.950Z,19.83
2022-10-19T05:23:17.389Z,11.63
2022-10-19T05:25:46.219Z,10.63
2022-10-19T05:28:13.169Z,11.57
2022-10-19T05:30:40.423Z,12.50
2022-10-19T05:33:07.391Z,14.67
2022-10-19T05:35:34.531Z,10.93
2022-10-19T05:39:00.855Z,12.27
2022-10-19T05:42:13.422Z,14.70
2022-10-19T05:44:40.719Z,13.40
2022-10-19T05:47:07.869Z,13.90
2022-10-19T05:49:35.026Z,10.23
2022-10-19T05:52:01.964Z,13.43
2022-10-19T05:54:29.094Z,19.97
2022-10-19T05:57:22.268Z,11.80
2022-10-19T05:59:50.105Z,10.60
2022-10-19T06:02:17.962Z,9.33
2022-10-19T06:04:46.302Z,13.57
2022-10-19T06:10:16.241Z,11.50
2022-10-19T06:12:58.391Z,9.57
2022-10-19T06:16:58.619Z,11.10
2022-10-19T06:19:28.090Z,10.57
2022-10-19T06:21:55.480Z,11.67
2022-10-19T06:24:22.924Z,11.93
2022-10-19T06:26:52.273Z,11.50
2022-10-19T06:29:22.160Z,8.40
2022-10-19T06:31:49.807Z,12.33
2022-10-19T06:55:46.508Z,9.57
2022-10-19T06:58:13.532Z,10.83
2022-10-19T07:00:40.804Z,11.17
2022-10-19T07:03:07.818Z,13.73
2022-10-19T07:05:35.072Z,12.07
2022-10-19T07:08:02.151Z,12.03
2022-10-19T07:14:13.532Z,13.43
2022-10-19T07:16:41.474Z,12.50
2022-10-19T07:19:08.397Z,12.83
2022-10-19T07:21:54.583Z,13.23
2022-10-19T07:24:23.014Z,8.17
2022-10-19T07:26:51.277Z,7.13
2022-10-19T07:29:37.410Z,8.50
2022-10-19T07:32:16.225Z,5.80
2022-10-19T07:34:43.975Z,10.73
2022-10-19T07:37:12.355Z,11.97
2022-10-19T07:39:40.783Z,7.70
2022-10-19T07:42:07.855Z,8.03
2022-10-19T07:44:35.032Z,5.43
2022-10-19T07:47:30.875Z,6.50
2022-10-19T07:50:00.259Z,6.87
2022-10-19T07:52:27.231Z,8.20
2022-10-19T07:55:00.816Z,7.27
2022-10-19T07:57:27.802Z,7.57
2022-10-19T07:59:54.963Z,44.67
2022-10-19T08:02:23.183Z,6.57
2022-10-19T08:09:33.468Z,6.37
2022-10-19T08:12:01.637Z,4.10
2022-10-19T08:14:28.577Z,5.83
2022-10-19T08:16:55.680Z,7.20
2022-10-19T08:19:25.115Z,22.13
2022-10-19T08:21:52.490Z,6.53
2022-10-19T08:28:03.909Z,7.83
2022-10-19T08:30:30.912Z,6.10
2022-10-19T08:32:58.050Z,7.50
2022-10-19T08:35:25.054Z,7.43
2022-10-19T08:37:52.738Z,6.90
2022-10-19T08:40:25.259Z,5.87
2022-10-19T08:44:22.039Z,8.63
2022-10-19T08:46:52.043Z,4.37
2022-10-19T08:49:24.502Z,5.37
2022-10-19T08:51:59.812Z,7.77
2022-10-19T08:54:48.032Z,8.00
2022-10-19T08:57:24.938Z,5.57
2022-10-19T09:04:52.560Z,9.17
2022-10-19T09:07:45.373Z,7.93
2022-10-19T09:10:16.090Z,8.90
2022-10-19T09:12:59.965Z,8.27
2022-10-19T09:15:40.491Z,6.63
2022-10-19T09:23:49.432Z,8.23
2022-10-19T09:26:34.193Z,8.33
2022-10-19T09:29:26.923Z,6.93
2022-10-19T09:32:15.855Z,6.70
2022-10-19T09:34:47.723Z,6.30
2022-10-19T09:41:23.535Z,6.90
2022-10-19T09:44:27.686Z,5.90
2022-10-19T09:47:35.029Z,7.17
2022-10-19T09:50:24.676Z,41.10
2022-10-19T09:53:18.781Z,8.70
2022-10-19T09:58:04.996Z,7.30
2022-10-19T10:00:55.097Z,4.43
2022-10-19T10:04:07.737Z,3.57
2022-10-19T10:07:12.470Z,4.80
2022-10-19T10:09:57.044Z,1.63
2022-10-19T10:13:19.029Z,2.77
2022-10-19T10:16:21.821Z,4.53
2022-10-19T10:19:43.736Z,1.33
2022-10-19T10:22:28.883Z,1.43
2022-10-19T10:25:17.124Z,0.80
2022-10-19T10:28:03.004Z,3.43
2022-10-19T10:30:59.241Z,2.93
2022-10-19T10:34:28.419Z,0.70
2022-10-19T10:37:20.508Z,4.80
2022-10-19T11:25:59.843Z,4.87
2022-10-19T11:28:36.224Z,2.97
2022-10-19T11:31:16.278Z,4.03
2022-10-19T11:34:02.039Z,1.47
2022-10-19T11:37:14.506Z,4.40
2022-10-19T11:39:44.379Z,1.27
2022-10-19T11:42:23.033Z,6.53
2022-10-19T11:45:00.013Z,2.87
2022-10-19T11:47:36.752Z,2.53
2022-10-19T11:50:35.547Z,3.43
2022-10-19T11:53:24.309Z,5.00
2022-10-19T11:55:54.281Z,4.50
2022-10-19T11:58:50.056Z,4.13
2022-10-19T12:01:29.628Z,4.67
2022-10-19T12:04:20.805Z,1.50
2022-10-19T12:07:09.302Z,6.73
2022-10-19T12:09:55.991Z,1.80
2022-10-19T12:12:33.654Z,6.60
2022-10-19T12:15:13.627Z,2.10
2022-10-19T12:17:44.843Z,1.53
2022-10-19T12:20:36.868Z,0.83
2022-10-19T12:23:34.241Z,0.60
2022-10-19T12:26:05.851Z,4.43
2022-10-19T12:28:46.426Z,19.73
2022-10-19T12:31:14.087Z,3.77
2022-10-19T12:34:00.199Z,2.50
2022-10-19T12:36:42.400Z,1.70
2022-10-19T12:39:34.528Z,1.30
2022-10-19T12:42:10.855Z,2.70
2022-10-19T12:44:56.260Z,1.07
2022-10-19T12:47:26.245Z,1.27
2022-10-19T12:49:57.726Z,1.80
2022-10-19T12:52:34.559Z,2.17
2022-10-19T12:55:11.633Z,1.80
2022-10-19T12:57:48.307Z,0.70
2022-10-19T13:00:28.740Z,0.53
2022-10-19T13:03:03.990Z,2.53
2022-10-19T13:05:33.646Z,2.33
2022-10-19T13:08:08.083Z,3.57
2022-10-19T13:10:38.518Z,3.67
2022-10-19T13:13:05.426Z,0.70
2022-10-19T13:15:38.399Z,3.17
2022-10-19T13:18:35.643Z,1.17
2022-10-19T13:21:03.709Z,0.60
2022-10-19T13:23:30.876Z,1.13
2022-10-19T13:26:24.181Z,1.37
2022-10-19T13:28:55.688Z,3.23
2022-10-19T13:31:29.092Z,0.47
2022-10-19T13:33:56.933Z,2.57
2022-10-19T13:36:25.418Z,1.77
2022-10-19T13:39:05.929Z,1.93
2022-10-19T13:41:39.109Z,4.27
2022-10-19T13:44:20.102Z,1.87
2022-10-19T13:47:18.556Z,0.63
2022-10-19T13:50:14.851Z,2.70
2022-10-19T13:52:44.861Z,3.00
2022-10-19T13:55:29.654Z,0.70
2022-10-19T13:58:31.620Z,0.50
2022-10-19T14:01:15.486Z,0.40
2022-10-19T14:04:23.682Z,0.97
2022-10-19T14:06:58.267Z,0.60
2022-10-19T14:09:54.150Z,0.77
2022-10-19T14:12:26.802Z,4.60
2022-10-19T14:14:54.102Z,1.80
2022-10-19T14:17:28.891Z,2.93
2022-10-19T14:20:00.334Z,2.00
2022-10-19T14:22:36.181Z,0.67
2022-10-19T14:25:16.912Z,1.53
2022-10-19T14:27:45.120Z,3.53
2022-10-19T14:30:25.677Z,0.93
2022-10-19T14:32:56.842Z,1.57
2022-10-19T14:35:36.963Z,1.13
2022-10-19T14:38:06.805Z,0.93
2022-10-19T14:40:38.778Z,2.53
2022-10-19T14:43:22.538Z,4.10
2022-10-19T14:46:07.704Z,0.37
2022-10-19T14:48:36.614Z,0.63
2022-10-19T14:51:09.998Z,0.77
2022-10-19T14:53:50.599Z,2.47
2022-10-19T14:56:34.001Z,1.80
2022-10-19T14:59:03.161Z,0.73
2022-10-19T15:01:30.466Z,1.30
2022-10-19T15:03:57.490Z,6.07
2022-10-19T15:06:29.473Z,3.97
2022-10-19T15:09:02.545Z,1.90
2022-10-19T15:11:38.669Z,2.17
2022-10-19T15:14:17.443Z,1.63
2022-10-19T15:17:02.377Z,0.73
2022-10-19T15:19:37.038Z,1.93
2022-10-19T15:22:32.248Z,1.67
2022-10-19T15:25:28.326Z,1.50
2022-10-19T15:27:57.600Z,1.33
2022-10-19T15:30:32.514Z,3.50
2022-10-19T15:33:15.259Z,0.90
2022-10-19T15:36:21.365Z,1.67
2022-10-19T15:39:25.572Z,1.97
2022-10-19T15:42:44.378Z,0.53
2022-10-19T15:45:33.525Z,0.93
2022-10-19T15:48:49.937Z,2.13
2022-10-19T15:51:36.700Z,1.13
2022-10-19T15:54:19.163Z,0.30
2022-10-19T15:57:00.917Z,1.10
2022-10-19T15:59:42.654Z,1.97
2022-10-19T16:02:27.547Z,1.07
2022-10-19T16:05:09.612Z,2.40
2022-10-19T16:07:51.553Z,0.97
2022-10-19T16:10:33.435Z,0.77
2022-10-19T16:13:15.203Z,4.27
2022-10-19T16:16:11.377Z,4.90
2022-10-19T16:18:54.274Z,0.80
2022-10-19T16:21:36.986Z,7.47
2022-10-19T16:24:18.859Z,7.97
2022-10-19T16:27:00.901Z,1.90
2022-10-19T16:29:44.311Z,6.93
2022-10-19T16:32:26.104Z,2.83
2022-10-19T16:35:11.641Z,4.43
2022-10-19T16:37:53.419Z,4.87
2022-10-19T16:40:35.191Z,2.20
2022-10-19T16:43:16.936Z,1.90
2022-10-19T16:45:58.726Z,3.43
2022-10-19T16:48:40.512Z,5.27
2022-10-19T16:51:39.703Z,2.77
2022-10-19T16:54:21.527Z,2.77
2022-10-19T16:57:08.649Z,2.60
2022-10-19T17:02:37.813Z,4.10
2022-10-19T17:05:20.859Z,5.97
2022-10-19T17:08:04.640Z,3.90
2022-10-19T17:10:47.003Z,3.70
2022-10-19T17:13:28.764Z,3.10
2022-10-19T17:16:11.569Z,4.43
2022-10-19T17:18:56.145Z,5.10
2022-10-19T17:21:39.238Z,3.67
2022-10-19T17:24:22.744Z,3.80
2022-10-19T17:27:04.845Z,2.93
2022-10-19T17:29:46.737Z,7.03
2022-10-19T17:32:28.476Z,3.57
2022-10-19T17:35:10.432Z,4.33
2022-10-19T17:37:52.374Z,2.43
2022-10-19T17:40:36.276Z,4.43
2022-10-19T17:43:18.006Z,4.77
2022-10-19T17:46:02.813Z,4.93
2022-10-19T17:48:45.307Z,3.20
2022-10-19T17:51:30.258Z,3.50
2022-10-19T17:54:14.496Z,3.30
2022-10-19T17:56:44.884Z,4.07
2022-10-19T17:59:12.447Z,8.40
2022-10-19T18:01:39.694Z,2.77
2022-10-19T18:04:06.745Z,3.07
2022-10-19T18:06:36.841Z,2.00
2022-10-19T18:09:08.202Z,3.37
2022-10-19T18:11:39.319Z,3.17
2022-10-19T18:14:08.347Z,5.27
2022-10-19T18:16:41.868Z,3.03
2022-10-19T18:19:09.244Z,3.13
2022-10-19T18:21:39.544Z,4.80
2022-10-19T18:24:11.311Z,3.53
2022-10-19T18:26:44.152Z,3.17
2022-10-19T18:29:17.561Z,2.93
2022-10-19T18:31:49.141Z,3.27
2022-10-19T18:34:16.141Z,2.63
2022-10-19T18:36:43.684Z,3.63
2022-10-19T18:39:12.543Z,4.13
2022-10-19T18:41:40.569Z,5.70
2022-10-19T18:44:08.854Z,5.60
2022-10-19T18:46:38.045Z,6.07
2022-10-19T18:49:08.247Z,3.67
2022-10-19T18:51:36.070Z,4.77
2022-10-19T18:54:03.177Z,4.73
2022-10-19T18:56:30.449Z,3.53
2022-10-19T18:58:57.356Z,11.40
2022-10-19T19:01:28.165Z,3.83
2022-10-19T19:03:57.389Z,6.43
2022-10-19T19:06:28.921Z,3.70
2022-10-19T19:08:57.235Z,4.93
2022-10-19T19:11:26.898Z,4.40
2022-10-19T19:13:56.245Z,3.63
2022-10-19T19:16:25.090Z,7.17
2022-10-19T19:18:52.182Z,4.70
2022-10-19T19:21:26.050Z,7.40
2022-10-19T19:23:54.172Z,4.23
2022-10-19T19:26:26.417Z,7.03
2022-10-19T19:28:53.608Z,4.43
2022-10-19T19:31:21.069Z,5.37
2022-10-19T19:33:48.618Z,4.27
2022-10-19T19:36:17.370Z,7.83
2022-10-19T19:38:44.856Z,3.60
2022-10-19T19:41:13.717Z,7.27
2022-10-19T19:43:42.391Z,3.63
2022-10-19T19:46:16.559Z,3.37
2022-10-19T19:48:45.141Z,4.47
2022-10-19T19:51:19.656Z,5.30
2022-10-19T19:53:47.745Z,3.20
2022-10-19T19:56:16.262Z,5.07
2022-10-19T19:58:44.661Z,6.03
2022-10-19T20:01:17.556Z,4.53
2022-10-19T20:03:46.706Z,3.83
2022-10-19T20:06:15.862Z,3.83
2022-10-19T20:08:43.214Z,7.43
2022-10-19T20:11:12.994Z,4.57
2022-10-19T20:13:40.255Z,4.47
2022-10-19T20:16:12.818Z,6.47
2022-10-19T20:18:41.359Z,5.93
2022-10-19T20:21:08.459Z,5.57
2022-10-19T20:23:35.388Z,3.67
2022-10-19T20:26:02.705Z,5.90
2022-10-19T20:28:32.520Z,5.07
2022-10-19T20:31:07.905Z,5.20
2022-10-19T20:33:37.097Z,3.80
2022-10-19T20:36:06.495Z,6.83
2022-10-19T20:38:34.580Z,4.77
2022-10-19T20:41:08.207Z,4.03
2022-10-19T20:43:36.849Z,5.67
2022-10-19T20:46:23.601Z,4.63
2022-10-19T20:48:51.313Z,6.50
2022-10-19T20:51:23.019Z,5.93
2022-10-19T20:53:52.712Z,6.80
2022-10-19T20:56:23.135Z,5.87
2022-10-19T21:01:35.405Z,3.60
2022-10-19T21:04:06.379Z,4.77
2022-10-19T21:06:36.881Z,5.53
2022-10-19T21:09:04.258Z,4.77
2022-10-19T21:11:37.357Z,6.77
2022-10-19T21:14:09.146Z,5.43
2022-10-19T21:16:37.790Z,6.87
2022-10-19T21:19:12.292Z,7.40
2022-10-19T21:21:42.534Z,4.67
2022-10-19T21:24:20.858Z,5.03
2022-10-19T21:26:48.465Z,5.07
2022-10-19T21:29:16.281Z,5.67
2022-10-19T21:31:47.934Z,5.00
2022-10-19T21:34:21.609Z,3.53
2022-10-19T21:36:49.046Z,3.60
2022-10-19T21:39:16.468Z,6.33
2022-10-19T21:41:43.616Z,5.73
2022-10-19T21:44:10.564Z,2.77
2022-10-19T21:46:37.734Z,6.73
2022-10-19T21:49:04.576Z,4.03
2022-10-19T21:51:36.882Z,4.53
2022-10-19T21:54:05.961Z,4.50
2022-10-19T21:56:34.208Z,6.07
2022-10-19T21:59:01.255Z,4.20
2022-10-19T22:01:30.041Z,3.87
2022-10-19T22:04:03.048Z,5.50
2022-10-19T22:06:32.807Z,5.77
2022-10-19T22:09:00.369Z,2.73
2022-10-19T22:11:27.917Z,7.37
2022-10-19T22:14:00.144Z,2.97
2022-10-19T22:16:28.786Z,4.00
2022-10-19T22:18:56.265Z,6.07
2022-10-19T22:21:27.059Z,5.77
2022-10-19T22:24:06.658Z,4.07
2022-10-19T22:26:36.661Z,4.60
2022-10-19T22:29:05.311Z,3.00
2022-10-19T22:31:33.197Z,7.43
2022-10-19T22:34:01.835Z,5.93
2022-10-19T22:36:28.988Z,3.17
2022-10-19T22:38:55.836Z,5.57
2022-10-19T22:41:22.966Z,3.07
2022-10-19T22:43:49.870Z,4.50
2022-10-19T22:46:17.007Z,3.73
2022-10-19T22:48:44.088Z,2.60
2022-10-19T22:51:11.318Z,4.17
2022-10-19T22:53:38.190Z,8.73
2022-10-19T22:56:06.016Z,7.63
2022-10-19T22:58:33.041Z,3.47
2022-10-19T23:01:06.085Z,4.97
2022-10-19T23:03:33.398Z,4.20
2022-10-19T23:06:00.853Z,5.30
2022-10-19T23:08:28.037Z,4.13
2022-10-19T23:10:55.126Z,5.50
2022-10-19T23:13:22.135Z,5.17
2022-10-19T23:15:50.732Z,4.83
2022-10-19T23:18:17.805Z,3.83
2022-10-19T23:20:54.139Z,7.07
2022-10-19T23:23:21.401Z,5.00
2022-10-19T23:26:05.570Z,4.67
2022-10-19T23:28:34.969Z,3.17
2022-10-19T23:31:07.912Z,5.10
2022-10-19T23:33:35.213Z,5.80
2022-10-19T23:36:12.321Z,5.67
2022-10-19T23:38:40.426Z,5.43
2022-10-19T23:41:07.511Z,5.57
2022-10-19T23:43:34.482Z,4.27
2022-10-19T23:46:01.584Z,5.60
2022-10-19T23:48:28.968Z,4.60
2022-10-19T23:51:00.878Z,6.33
2022-10-19T23:53:29.062Z,4.57
2022-10-19T23:56:01.504Z,5.10
2022-10-19T23:58:28.876Z,7.40
